Terminal Aerodrome Forecast
Issued by NWS Charleston, WV

Current Version | Previous Version | Text Only | Print | Product List | Glossary Off
Versions: 1 2 3 4 5 6 7 8 9 10 11 12 13 14 15 16 17 18 19 20 21 22 23 24 25 26

000
FTUS41 KRLX 271120
TAFEKN
TAF
KEKN 271120Z 2712/2812 VRB03KT 6SM BR FEW250
     FM271300 17006KT P6SM SCT250
     FM271600 19010G20KT P6SM BKN250
     FM271900 20010G20KT P6SM VCTS BKN060CB
      TEMPO 2719/2723 4SM SHRA BKN030
     FM272300 21008KT P6SM BKN050
     FM280800 VRB03KT 5SM BR BKN025
     FM281100 VRB03KT 2SM BR SCT025=

USA.gov is the U.S. government's official web portal to all federal, state and local government web resources and services.